createdAt,value
2023-02-25T00:00:23.428Z,4.40
2023-02-25T00:02:49.846Z,4.72
2023-02-25T00:05:16.752Z,4.78
2023-02-25T00:07:43.004Z,4.45
2023-02-25T00:10:11.266Z,4.38
2023-02-25T00:12:37.715Z,4.57
2023-02-25T00:15:04.550Z,4.95
2023-02-25T00:17:30.766Z,4.35
2023-02-25T00:19:57.416Z,4.20
2023-02-25T00:22:24.395Z,4.80
2023-02-25T00:24:54.292Z,4.82
2023-02-25T00:27:20.971Z,4.78
2023-02-25T00:29:47.228Z,4.20
2023-02-25T00:32:13.979Z,5.18
2023-02-25T00:34:40.309Z,4.75
2023-02-25T00:37:06.578Z,4.50
2023-02-25T00:39:42.393Z,4.82
2023-02-25T00:42:12.789Z,4.40
2023-02-25T00:44:39.416Z,4.90
2023-02-25T00:47:05.950Z,3.83
2023-02-25T00:49:32.859Z,5.75
2023-02-25T00:52:00.126Z,4.65
2023-02-25T00:54:26.489Z,4.70
2023-02-25T00:56:53.089Z,4.50
2023-02-25T00:59:19.298Z,4.00
2023-02-25T01:01:45.878Z,4.00
2023-02-25T01:04:12.121Z,4.47
2023-02-25T01:06:38.651Z,4.68
2023-02-25T01:09:06.721Z,4.65
2023-02-25T01:11:34.104Z,3.45
2023-02-25T01:14:02.244Z,4.22
2023-02-25T01:16:29.505Z,4.43
2023-02-25T01:18:56.920Z,3.83
2023-02-25T01:21:25.772Z,3.60
2023-02-25T01:23:58.230Z,4.65
2023-02-25T01:26:25.419Z,3.20
2023-02-25T01:28:51.693Z,4.15
2023-02-25T01:31:19.164Z,3.28
2023-02-25T01:33:45.513Z,4.47
2023-02-25T01:36:11.732Z,4.40
2023-02-25T01:38:37.964Z,3.75
2023-02-25T01:41:04.330Z,3.72
2023-02-25T01:43:30.607Z,4.53
2023-02-25T01:45:56.999Z,3.78
2023-02-25T01:48:27.677Z,3.72
2023-02-25T01:50:55.557Z,4.38
2023-02-25T01:53:24.895Z,4.30
2023-02-25T01:55:51.385Z,4.00
2023-02-25T01:58:17.895Z,3.90
2023-02-25T02:00:44.314Z,4.00
2023-02-25T02:03:15.885Z,4.15
2023-02-25T02:05:53.904Z,3.33
2023-02-25T02:08:20.163Z,3.70
2023-02-25T02:10:46.357Z,3.80
2023-02-25T02:13:12.683Z,3.67
2023-02-25T02:15:41.845Z,4.10
2023-02-25T02:18:08.616Z,3.97
2023-02-25T02:20:52.964Z,3.53
2023-02-25T02:23:31.489Z,3.60
2023-02-25T02:26:18.045Z,3.80
2023-02-25T02:29:00.290Z,4.00
2023-02-25T02:31:33.024Z,4.60
2023-02-25T02:33:59.494Z,4.13
2023-02-25T02:36:42.797Z,3.92
2023-02-25T02:39:09.031Z,4.00
2023-02-25T02:41:36.779Z,5.13
2023-02-25T02:44:12.819Z,4.70
2023-02-25T02:46:42.346Z,4.78
2023-02-25T02:49:20.935Z,6.22
2023-02-25T02:51:53.276Z,5.22
2023-02-25T02:54:20.861Z,4.65
2023-02-25T02:56:48.437Z,4.75
2023-02-25T02:59:25.898Z,5.30
2023-02-25T03:02:18.636Z,5.20
2023-02-25T03:04:46.209Z,4.85
2023-02-25T03:07:13.303Z,5.25
2023-02-25T03:09:39.521Z,5.40
2023-02-25T03:12:06.450Z,5.22
2023-02-25T03:14:32.653Z,4.70
2023-02-25T03:17:13.642Z,5.38
2023-02-25T03:19:45.337Z,5.00
2023-02-25T03:22:13.652Z,4.50
2023-02-25T03:24:43.142Z,4.20
2023-02-25T03:27:28.032Z,4.57
2023-02-25T03:29:58.700Z,4.43
2023-02-25T03:32:26.626Z,4.57
2023-02-25T03:34:57.802Z,4.50
2023-02-25T03:37:27.016Z,4.22
2023-02-25T03:39:56.173Z,4.25
2023-02-25T03:42:24.475Z,4.25
2023-02-25T03:44:51.987Z,5.13
2023-02-25T03:47:19.459Z,4.30
2023-02-25T03:50:04.626Z,4.40
2023-02-25T03:52:30.948Z,4.25
2023-02-25T03:54:58.135Z,4.57
2023-02-25T03:57:26.150Z,4.70
2023-02-25T03:59:56.189Z,4.40
2023-02-25T04:02:28.327Z,4.63
2023-02-25T04:04:54.626Z,3.70
2023-02-25T04:07:21.221Z,3.53
2023-02-25T04:09:47.451Z,3.22
2023-02-25T04:12:13.774Z,4.53
2023-02-25T04:14:39.970Z,4.07
2023-02-25T04:17:06.442Z,3.30
2023-02-25T04:19:32.795Z,4.63
2023-02-25T04:22:00.338Z,3.80
2023-02-25T04:24:27.006Z,4.22
2023-02-25T04:26:58.427Z,3.92
2023-02-25T04:29:25.460Z,3.25
2023-02-25T04:31:52.087Z,3.25
2023-02-25T04:34:19.095Z,3.25
2023-02-25T04:36:46.107Z,3.22
2023-02-25T04:39:13.635Z,3.17
2023-02-25T04:41:40.314Z,3.53
2023-02-25T04:44:07.470Z,3.25
2023-02-25T04:46:34.931Z,4.32
2023-02-25T04:49:01.697Z,3.33
2023-02-25T04:51:28.060Z,3.42
2023-02-25T04:53:54.595Z,3.10
2023-02-25T04:56:21.007Z,3.05
2023-02-25T04:58:47.421Z,3.97
2023-02-25T05:01:13.741Z,3.88
2023-02-25T05:03:40.403Z,3.30
2023-02-25T05:06:07.361Z,3.38
2023-02-25T05:08:34.194Z,3.08
2023-02-25T05:11:00.941Z,3.75
2023-02-25T05:13:27.698Z,3.95
2023-02-25T05:16:03.368Z,3.75
2023-02-25T05:18:29.611Z,4.18
2023-02-25T05:20:55.883Z,3.80
2023-02-25T05:23:22.180Z,4.72
2023-02-25T05:25:48.389Z,3.65
2023-02-25T05:28:14.682Z,3.83
2023-02-25T05:30:40.939Z,3.80
2023-02-25T05:33:09.010Z,4.40
2023-02-25T05:35:35.310Z,5.15
2023-02-25T05:38:01.518Z,4.85
2023-02-25T05:40:27.779Z,4.82
2023-02-25T05:42:54.049Z,4.30
2023-02-25T05:45:20.262Z,4.30
2023-02-25T05:47:46.533Z,5.25
2023-02-25T05:50:12.728Z,5.00
2023-02-25T05:52:39.124Z,4.00
2023-02-25T05:55:05.562Z,4.97
2023-02-25T05:57:31.790Z,4.35
2023-02-25T05:59:57.992Z,4.35
2023-02-25T06:02:24.294Z,3.80
2023-02-25T06:04:52.754Z,4.85
2023-02-25T06:07:18.965Z,3.85
2023-02-25T06:09:45.666Z,3.88
2023-02-25T06:12:11.939Z,4.30
2023-02-25T06:14:38.158Z,3.63
2023-02-25T06:17:04.350Z,3.45
2023-02-25T06:19:30.597Z,4.25
2023-02-25T06:21:56.836Z,3.65
2023-02-25T06:24:23.205Z,3.65
2023-02-25T06:26:49.408Z,4.25
2023-02-25T06:29:15.697Z,3.92
2023-02-25T06:31:42.078Z,4.03
2023-02-25T06:34:08.412Z,4.50
2023-02-25T06:36:34.614Z,4.53
2023-02-25T06:39:00.925Z,4.18
2023-02-25T06:41:27.180Z,3.72
2023-02-25T06:43:53.445Z,4.00
2023-02-25T06:46:20.913Z,3.15
2023-02-25T06:48:47.362Z,4.43
2023-02-25T06:51:14.041Z,4.05
2023-02-25T06:53:40.910Z,4.82
2023-02-25T06:56:10.625Z,3.50
2023-02-25T06:58:37.409Z,3.72
2023-02-25T07:01:07.249Z,3.17
2023-02-25T07:03:33.905Z,4.40
2023-02-25T07:06:00.215Z,3.47
2023-02-25T07:08:26.435Z,3.95
2023-02-25T07:10:52.630Z,4.13
2023-02-25T07:13:18.829Z,4.55
2023-02-25T07:15:45.132Z,4.45
2023-02-25T07:18:11.415Z,3.80
2023-02-25T07:20:40.581Z,3.33
2023-02-25T07:23:06.785Z,3.88
2023-02-25T07:25:33.214Z,3.28
2023-02-25T07:27:59.817Z,3.17
2023-02-25T07:30:26.041Z,4.40
2023-02-25T07:32:52.318Z,3.83
2023-02-25T07:35:18.539Z,3.63
2023-02-25T07:37:44.790Z,4.30
2023-02-25T07:40:12.807Z,4.38
2023-02-25T07:42:40.118Z,10.07
2023-02-25T07:45:06.942Z,7.75
2023-02-25T07:47:33.192Z,6.28
2023-02-25T07:49:59.377Z,8.10
2023-02-25T07:52:25.573Z,12.73
2023-02-25T07:54:51.771Z,5.78
2023-02-25T07:57:17.981Z,7.38
2023-02-25T07:59:44.201Z,5.55
2023-02-25T08:02:11.232Z,6.03
2023-02-25T08:04:37.674Z,7.40
2023-02-25T08:07:03.946Z,19.70
2023-02-25T08:09:30.168Z,22.30
2023-02-25T08:11:56.442Z,9.23
2023-02-25T08:14:22.691Z,5.57
2023-02-25T08:16:49.099Z,5.50
2023-02-25T08:19:15.338Z,5.47
2023-02-25T08:21:41.626Z,5.20
2023-02-25T08:24:08.031Z,5.18
2023-02-25T08:26:34.272Z,4.53
2023-02-25T08:29:00.555Z,8.43
2023-02-25T08:31:27.329Z,10.75
2023-02-25T08:33:53.884Z,7.25
2023-02-25T08:36:21.686Z,9.63
2023-02-25T08:38:48.083Z,4.95
2023-02-25T08:41:14.377Z,4.45
2023-02-25T08:43:40.949Z,13.27
2023-02-25T08:46:07.597Z,5.97
2023-02-25T08:48:34.566Z,5.68
2023-02-25T08:51:10.688Z,4.22
2023-02-25T08:53:38.627Z,11.77
2023-02-25T08:56:14.607Z,7.60
2023-02-25T08:58:41.166Z,4.28
2023-02-25T09:01:08.891Z,4.30
2023-02-25T09:03:35.333Z,6.47
2023-02-25T09:06:01.548Z,8.38
2023-02-25T09:08:28.279Z,19.48
2023-02-25T09:10:54.489Z,6.25
2023-02-25T09:13:20.710Z,6.85
2023-02-25T09:15:54.728Z,7.55
2023-02-25T09:18:20.974Z,5.28
2023-02-25T09:20:49.519Z,14.00
2023-02-25T09:23:15.785Z,6.38
2023-02-25T09:25:44.056Z,4.63
2023-02-25T09:28:10.432Z,3.60
2023-02-25T09:30:36.626Z,3.28
2023-02-25T09:33:03.190Z,4.25
2023-02-25T09:35:29.969Z,5.05
2023-02-25T09:37:56.400Z,3.92
2023-02-25T09:40:22.717Z,3.95
2023-02-25T09:43:15.035Z,3.63
2023-02-25T09:45:47.085Z,3.67
2023-02-25T09:48:18.242Z,3.08
2023-02-25T09:50:47.510Z,3.22
2023-02-25T09:53:15.162Z,3.58
2023-02-25T09:55:42.428Z,3.38
2023-02-25T09:58:11.438Z,3.67
2023-02-25T10:00:41.030Z,3.60
2023-02-25T10:03:15.886Z,3.47
2023-02-25T10:05:48.402Z,3.25
2023-02-25T10:08:23.813Z,3.30
2023-02-25T10:10:49.978Z,3.40
2023-02-25T10:13:34.723Z,3.55
2023-02-25T10:16:03.904Z,4.00
2023-02-25T10:18:40.518Z,3.95
2023-02-25T10:21:11.418Z,3.58
2023-02-25T10:23:43.422Z,3.13
2023-02-25T10:26:15.542Z,3.95
2023-02-25T10:28:43.532Z,3.65
2023-02-25T10:31:15.355Z,4.28
2023-02-25T10:33:44.534Z,3.65
2023-02-25T10:36:19.786Z,3.72
2023-02-25T10:38:49.898Z,4.50
2023-02-25T10:41:16.643Z,4.13
2023-02-25T10:43:43.464Z,6.30
2023-02-25T10:46:19.487Z,5.53
2023-02-25T10:48:57.316Z,5.03
2023-02-25T10:51:25.799Z,6.30
2023-02-25T10:53:57.988Z,5.75
2023-02-25T10:56:25.211Z,5.28
2023-02-25T10:59:08.225Z,4.95
2023-02-25T11:01:35.870Z,5.03
2023-02-25T11:04:04.033Z,5.18
2023-02-25T11:06:37.264Z,5.90
2023-02-25T11:09:23.441Z,5.30
2023-02-25T11:11:52.941Z,4.57
2023-02-25T11:14:19.314Z,3.30
2023-02-25T11:16:46.151Z,3.58
2023-02-25T11:19:30.028Z,3.13
2023-02-25T11:21:57.841Z,3.25
2023-02-25T11:24:33.274Z,2.85
2023-02-25T11:27:00.565Z,2.58
2023-02-25T11:29:32.838Z,2.65
2023-02-25T11:32:00.999Z,3.28
2023-02-25T11:34:29.003Z,2.70
2023-02-25T11:36:55.263Z,2.95
2023-02-25T11:39:26.256Z,2.47
2023-02-25T11:41:53.901Z,2.35
2023-02-25T11:44:22.633Z,2.20
2023-02-25T11:46:54.947Z,2.30
2023-02-25T11:49:29.349Z,1.73
2023-02-25T11:52:09.529Z,1.95
2023-02-25T11:54:54.497Z,1.80
2023-02-25T11:57:26.837Z,1.70
2023-02-25T12:00:25.518Z,1.50
2023-02-25T12:03:09.935Z,1.38
2023-02-25T12:05:43.968Z,1.63
2023-02-25T12:08:13.666Z,1.67
2023-02-25T12:10:40.170Z,1.40
2023-02-25T12:13:24.980Z,1.20
2023-02-25T12:16:07.800Z,1.30
2023-02-25T12:18:52.605Z,1.40
2023-02-25T12:21:25.270Z,1.30
2023-02-25T12:24:09.837Z,1.40
2023-02-25T12:26:58.084Z,1.40
2023-02-25T12:29:32.006Z,1.60
2023-02-25T12:32:17.052Z,1.65
2023-02-25T12:34:54.414Z,1.33
2023-02-25T12:37:20.625Z,1.52
2023-02-25T12:39:48.403Z,1.70
2023-02-25T12:42:17.981Z,2.03
2023-02-25T12:44:47.322Z,1.60
2023-02-25T12:47:30.165Z,1.60
2023-02-25T12:50:19.700Z,2.20
2023-02-25T12:52:53.009Z,2.33
2023-02-25T12:55:19.272Z,1.88
2023-02-25T12:57:54.714Z,2.50
2023-02-25T13:00:33.173Z,2.78
2023-02-25T13:03:21.100Z,2.72
2023-02-25T13:06:05.569Z,2.70
2023-02-25T13:08:39.043Z,2.80
2023-02-25T13:11:05.233Z,2.03
2023-02-25T13:14:00.920Z,1.90
2023-02-25T13:16:32.117Z,1.40
2023-02-25T13:18:58.343Z,1.45
2023-02-25T13:21:41.808Z,1.77
2023-02-25T13:24:27.355Z,2.33
2023-02-25T13:27:05.878Z,2.25
2023-02-25T13:29:38.996Z,1.60
2023-02-25T13:32:24.343Z,2.15
2023-02-25T13:35:08.737Z,1.90
2023-02-25T13:37:37.777Z,2.20
2023-02-25T13:40:13.136Z,2.03
2023-02-25T13:42:45.115Z,2.00
2023-02-25T13:45:30.289Z,2.00
2023-02-25T13:48:15.064Z,2.28
2023-02-25T13:50:54.872Z,2.05
2023-02-25T13:53:32.510Z,1.98
2023-02-25T13:56:07.858Z,1.67
2023-02-25T13:58:54.652Z,1.85
2023-02-25T14:01:27.595Z,1.95
2023-02-25T14:04:06.128Z,2.08
2023-02-25T14:06:42.171Z,2.00
2023-02-25T14:09:27.163Z,1.77
2023-02-25T14:12:06.532Z,2.20
2023-02-25T14:14:45.504Z,1.80
2023-02-25T14:17:30.078Z,1.70
2023-02-25T14:20:06.539Z,1.65
2023-02-25T14:22:38.396Z,2.10
2023-02-25T14:25:04.617Z,1.73
2023-02-25T14:27:49.402Z,1.83
2023-02-25T14:30:22.350Z,1.60
2023-02-25T14:33:04.460Z,1.75
2023-02-25T14:35:39.883Z,1.75
2023-02-25T14:38:19.132Z,1.92
2023-02-25T14:41:13.261Z,1.85
2023-02-25T14:43:39.682Z,1.80
2023-02-25T14:46:30.721Z,1.90
2023-02-25T14:49:00.485Z,1.98
2023-02-25T14:51:44.887Z,1.92
2023-02-25T14:54:29.958Z,2.17
2023-02-25T14:57:23.114Z,2.17
2023-02-25T15:00:09.520Z,1.80
2023-02-25T15:02:41.146Z,2.20
2023-02-25T15:05:31.411Z,2.17
2023-02-25T15:08:17.689Z,2.30
2023-02-25T15:10:55.862Z,2.28
2023-02-25T15:13:31.403Z,2.05
2023-02-25T15:16:17.038Z,1.90
2023-02-25T15:18:49.485Z,2.08
2023-02-25T15:21:32.172Z,1.95
2023-02-25T15:23:59.662Z,1.90
2023-02-25T15:26:27.462Z,2.20
2023-02-25T15:28:54.784Z,1.70
2023-02-25T15:31:28.940Z,1.90
2023-02-25T15:34:15.653Z,2.08
2023-02-25T15:36:43.356Z,2.05
2023-02-25T15:39:12.565Z,1.83
2023-02-25T15:41:40.093Z,1.95
2023-02-25T15:44:12.166Z,2.10
2023-02-25T15:46:41.582Z,2.28
2023-02-25T15:49:07.816Z,2.25
2023-02-25T15:51:45.047Z,2.08
2023-02-25T15:54:12.154Z,1.73
2023-02-25T15:56:47.360Z,2.10
2023-02-25T15:59:33.522Z,2.00
2023-02-25T16:01:59.876Z,1.63
2023-02-25T16:04:41.653Z,1.48
2023-02-25T16:07:08.275Z,1.88
2023-02-25T16:09:34.498Z,1.80
2023-02-25T16:12:05.144Z,1.73
2023-02-25T16:14:33.507Z,1.70
2023-02-25T16:17:09.830Z,1.60
2023-02-25T16:19:37.194Z,2.05
2023-02-25T16:22:07.586Z,1.40
2023-02-25T16:24:35.832Z,1.60
2023-02-25T16:27:06.429Z,1.50
2023-02-25T16:29:38.008Z,1.97
2023-02-25T16:32:29.171Z,1.40
2023-02-25T16:35:06.816Z,1.40
2023-02-25T16:37:44.067Z,1.77
2023-02-25T16:40:19.891Z,1.10
2023-02-25T16:42:46.282Z,1.52
2023-02-25T16:45:22.304Z,1.60
2023-02-25T16:47:53.347Z,1.45
2023-02-25T16:50:21.956Z,1.58
2023-02-25T16:52:49.030Z,1.25
2023-02-25T16:55:17.606Z,1.60
2023-02-25T16:58:00.015Z,1.63
2023-02-25T17:00:26.802Z,1.38
2023-02-25T17:02:53.685Z,1.65
2023-02-25T17:05:30.972Z,1.80
2023-02-25T17:08:01.940Z,1.45
2023-02-25T17:10:30.240Z,1.73
2023-02-25T17:12:56.775Z,1.40
2023-02-25T17:15:25.931Z,1.65
2023-02-25T17:17:56.305Z,1.30
2023-02-25T17:20:24.263Z,1.73
2023-02-25T17:22:51.064Z,1.77
2023-02-25T17:25:18.373Z,1.67
2023-02-25T17:27:46.468Z,1.58
2023-02-25T17:30:31.803Z,1.55
2023-02-25T17:32:59.076Z,1.65
2023-02-25T17:35:27.121Z,1.52
2023-02-25T17:37:54.964Z,1.73
2023-02-25T17:40:24.285Z,1.77
2023-02-25T17:43:10.443Z,1.70
2023-02-25T17:45:41.225Z,2.10
2023-02-25T17:48:14.798Z,1.35
2023-02-25T17:50:41.042Z,2.42
2023-02-25T17:53:16.506Z,1.70
2023-02-25T17:55:42.765Z,1.90
2023-02-25T17:58:20.744Z,2.28
2023-02-25T18:00:57.773Z,1.80
2023-02-25T18:03:26.144Z,1.52
2023-02-25T18:05:59.106Z,2.10
2023-02-25T18:08:28.965Z,1.67
2023-02-25T18:11:15.123Z,2.17
2023-02-25T18:13:41.636Z,2.22
2023-02-25T18:16:22.752Z,1.80
2023-02-25T18:18:53.163Z,1.98
2023-02-25T18:21:19.737Z,1.50
2023-02-25T18:23:46.755Z,1.60
2023-02-25T18:26:14.947Z,2.05
2023-02-25T18:28:41.213Z,1.75
2023-02-25T18:31:08.144Z,1.60
2023-02-25T18:33:34.684Z,1.98
2023-02-25T18:36:00.979Z,2.20
2023-02-25T18:38:29.500Z,2.05
2023-02-25T18:40:55.853Z,2.10
2023-02-25T18:43:23.969Z,1.70
2023-02-25T18:45:50.177Z,1.73
2023-02-25T18:48:16.424Z,2.10
2023-02-25T18:50:44.452Z,2.08
2023-02-25T18:53:14.967Z,1.73
2023-02-25T18:55:41.177Z,2.30
2023-02-25T18:58:11.964Z,1.88
2023-02-25T19:00:38.397Z,2.00
2023-02-25T19:03:05.503Z,1.70
2023-02-25T19:05:31.787Z,1.83
2023-02-25T19:07:58.055Z,2.15
2023-02-25T19:10:28.848Z,1.65
2023-02-25T19:13:03.224Z,1.80
2023-02-25T19:15:30.066Z,1.83
2023-02-25T19:17:56.358Z,1.90
2023-02-25T19:20:22.844Z,2.00
2023-02-25T19:22:50.488Z,1.75
2023-02-25T19:25:24.209Z,1.80
2023-02-25T19:27:51.467Z,2.13
2023-02-25T19:30:18.664Z,2.50
2023-02-25T19:32:44.945Z,2.13
2023-02-25T19:35:11.267Z,2.20
2023-02-25T19:37:38.952Z,2.00
2023-02-25T19:40:06.924Z,2.50
2023-02-25T19:42:33.392Z,2.42
2023-02-25T19:44:59.579Z,2.47
2023-02-25T19:47:25.781Z,2.25
2023-02-25T19:49:52.127Z,2.33
2023-02-25T19:52:18.603Z,2.10
2023-02-25T19:54:44.805Z,2.38
2023-02-25T19:57:11.540Z,2.35
2023-02-25T19:59:37.791Z,2.60
2023-02-25T20:02:04.060Z,3.05
2023-02-25T20:04:30.644Z,2.92
2023-02-25T20:06:56.870Z,2.47
2023-02-25T20:09:23.058Z,2.78
2023-02-25T20:11:51.183Z,2.50
2023-02-25T20:14:17.862Z,2.55
2023-02-25T20:16:44.510Z,2.40
2023-02-25T20:19:11.092Z,3.13
2023-02-25T20:21:37.385Z,2.35
2023-02-25T20:24:03.784Z,2.50
2023-02-25T20:26:32.568Z,2.40
2023-02-25T20:28:59.102Z,2.95
2023-02-25T20:31:26.192Z,3.00
2023-02-25T20:33:53.787Z,3.00
2023-02-25T20:36:21.470Z,2.60
2023-02-25T20:39:12.415Z,2.72
2023-02-25T20:41:42.491Z,2.65
2023-02-25T20:44:09.165Z,2.70
2023-02-25T20:46:36.025Z,2.70
2023-02-25T20:49:02.740Z,2.60
2023-02-25T20:51:29.096Z,2.70
2023-02-25T20:53:55.470Z,2.90
2023-02-25T20:56:23.479Z,2.45
2023-02-25T20:58:49.917Z,2.72
2023-02-25T21:01:16.250Z,2.88
2023-02-25T21:03:42.760Z,3.33
2023-02-25T21:06:11.384Z,3.03
2023-02-25T21:08:37.860Z,2.88
2023-02-25T21:11:04.944Z,3.42
2023-02-25T21:13:31.564Z,3.20
2023-02-25T21:15:59.540Z,3.20
2023-02-25T21:18:25.745Z,3.05
2023-02-25T21:21:03.281Z,3.50
2023-02-25T21:23:30.906Z,3.75
2023-02-25T21:25:57.287Z,3.90
2023-02-25T21:28:23.907Z,3.80
2023-02-25T21:30:50.834Z,3.28
2023-02-25T21:33:17.876Z,3.70
2023-02-25T21:35:50.679Z,3.20
2023-02-25T21:38:16.882Z,3.58
2023-02-25T21:40:43.148Z,3.15
2023-02-25T21:43:09.355Z,3.67
2023-02-25T21:45:35.575Z,3.55
2023-02-25T21:48:01.806Z,3.30
2023-02-25T21:50:28.063Z,3.03
2023-02-25T21:52:54.313Z,3.55
2023-02-25T21:55:20.591Z,4.22
2023-02-25T21:57:46.985Z,3.92
2023-02-25T22:00:13.306Z,3.75
2023-02-25T22:02:39.612Z,4.15
2023-02-25T22:05:06.925Z,3.80
2023-02-25T22:07:33.150Z,3.97
2023-02-25T22:10:00.465Z,4.57
2023-02-25T22:12:26.828Z,4.78
2023-02-25T22:14:53.035Z,3.70
2023-02-25T22:17:19.240Z,3.97
2023-02-25T22:19:45.432Z,3.60
2023-02-25T22:22:14.097Z,3.90
2023-02-25T22:24:41.167Z,3.88
2023-02-25T22:27:07.476Z,3.80
2023-02-25T22:29:33.726Z,4.00
2023-02-25T22:32:00.234Z,4.30
2023-02-25T22:34:26.564Z,3.63
2023-02-25T22:36:52.828Z,3.33
2023-02-25T22:39:19.040Z,3.75
2023-02-25T22:41:45.237Z,4.13
2023-02-25T22:44:11.442Z,3.30
2023-02-25T22:46:38.230Z,3.60
2023-02-25T22:49:05.562Z,4.07
2023-02-25T22:51:34.156Z,3.63
2023-02-25T22:54:00.408Z,3.85
2023-02-25T22:56:26.962Z,3.40
2023-02-25T22:58:53.411Z,3.33
2023-02-25T23:01:21.130Z,3.53
2023-02-25T23:03:48.201Z,3.60
2023-02-25T23:06:15.647Z,3.42
2023-02-25T23:08:42.220Z,3.47
2023-02-25T23:11:08.564Z,3.53
2023-02-25T23:13:34.793Z,3.60
2023-02-25T23:16:01.694Z,3.38
2023-02-25T23:18:27.907Z,3.30
2023-02-25T23:20:54.148Z,3.17
2023-02-25T23:23:20.358Z,2.97
2023-02-25T23:25:52.149Z,3.17
2023-02-25T23:28:18.445Z,3.03
2023-02-25T23:30:44.731Z,8.57
2023-02-25T23:33:12.480Z,3.60
2023-02-25T23:35:42.060Z,2.80
2023-02-25T23:38:09.356Z,3.20
2023-02-25T23:40:35.633Z,3.53
2023-02-25T23:43:01.840Z,3.45
2023-02-25T23:45:28.089Z,3.35
2023-02-25T23:47:54.336Z,3.25
2023-02-25T23:50:20.581Z,2.70
2023-02-25T23:52:46.855Z,3.17
2023-02-25T23:55:13.625Z,3.53
2023-02-25T23:57:40.215Z,3.28
